createdAt,value
2023-04-17T00:01:07.413Z,9.35
2023-04-17T00:03:14.024Z,9.35
2023-04-17T00:05:16.885Z,9.35
2023-04-17T00:07:22.828Z,9.34
2023-04-17T00:09:24.383Z,9.35
2023-04-17T00:11:26.374Z,9.36
2023-04-17T00:13:27.841Z,9.33
2023-04-17T00:15:29.467Z,9.34
2023-04-17T00:17:31.040Z,9.33
2023-04-17T00:19:32.600Z,9.31
2023-04-17T00:21:34.053Z,9.30
2023-04-17T00:23:35.593Z,9.30
2023-04-17T00:25:37.028Z,9.29
2023-04-17T00:27:38.629Z,9.29
2023-04-17T00:29:40.145Z,9.30
2023-04-17T00:31:41.687Z,9.28
2023-04-17T00:33:43.215Z,9.29
2023-04-17T00:35:44.736Z,9.27
2023-04-17T00:37:48.166Z,9.27
2023-04-17T00:39:49.699Z,9.27
2023-04-17T00:41:51.158Z,9.27
2023-04-17T00:43:52.635Z,9.27
2023-04-17T00:45:54.501Z,9.27
2023-04-17T00:47:58.751Z,9.27
2023-04-17T00:50:00.451Z,9.26
2023-04-17T00:52:02.714Z,9.26
2023-04-17T00:54:04.495Z,9.26
2023-04-17T00:56:06.797Z,9.26
2023-04-17T00:58:09.106Z,9.24
2023-04-17T01:00:11.415Z,9.23
2023-04-17T01:02:13.471Z,9.25
2023-04-17T01:04:15.155Z,9.24
2023-04-17T01:06:16.899Z,9.24
2023-04-17T01:08:19.330Z,9.23
2023-04-17T01:10:21.008Z,9.24
2023-04-17T01:12:24.443Z,9.23
2023-04-17T01:14:25.911Z,9.21
2023-04-17T01:16:30.358Z,9.20
2023-04-17T01:18:31.826Z,9.20
2023-04-17T01:20:34.173Z,9.18
2023-04-17T01:22:35.920Z,9.17
2023-04-17T01:24:37.777Z,9.16
2023-04-17T01:26:39.905Z,9.15
2023-04-17T01:28:41.420Z,9.15
2023-04-17T01:30:42.982Z,9.13
2023-04-17T01:32:44.532Z,9.10
2023-04-17T01:34:46.141Z,9.11
2023-04-17T01:36:47.818Z,9.13
2023-04-17T01:38:49.337Z,9.11
2023-04-17T01:40:51.403Z,9.10
2023-04-17T01:42:52.953Z,9.10
2023-04-17T01:44:54.468Z,9.10
2023-04-17T01:46:56.583Z,9.10
2023-04-17T01:48:58.076Z,9.08
2023-04-17T01:50:59.830Z,9.07
2023-04-17T01:53:01.328Z,9.05
2023-04-17T01:55:04.200Z,9.05
2023-04-17T01:57:05.699Z,9.05
2023-04-17T01:59:07.184Z,9.03
2023-04-17T02:01:08.667Z,9.03
2023-04-17T02:03:10.248Z,9.03
2023-04-17T02:05:11.840Z,9.02
2023-04-17T02:07:13.333Z,9.00
2023-04-17T02:09:14.785Z,8.99
2023-04-17T02:11:16.330Z,8.98
2023-04-17T02:13:17.846Z,8.96
2023-04-17T02:15:19.413Z,8.95
2023-04-17T02:17:20.990Z,8.93
2023-04-17T02:19:22.814Z,8.92
2023-04-17T02:21:24.386Z,8.92
2023-04-17T02:23:26.222Z,8.91
2023-04-17T02:25:28.452Z,8.90
2023-04-17T02:27:30.026Z,8.89
2023-04-17T02:29:31.626Z,8.88
2023-04-17T02:31:33.428Z,8.88
2023-04-17T02:33:36.821Z,8.88
2023-04-17T02:35:38.368Z,8.87
2023-04-17T02:37:40.103Z,8.87
2023-04-17T02:39:41.636Z,8.86
2023-04-17T02:41:43.113Z,8.86
2023-04-17T02:43:44.662Z,8.84
2023-04-17T02:45:46.152Z,8.82
2023-04-17T02:47:48.231Z,8.81
2023-04-17T02:49:49.786Z,8.79
2023-04-17T02:51:51.561Z,8.78
2023-04-17T02:53:53.253Z,8.78
2023-04-17T02:55:55.901Z,8.76
2023-04-17T02:57:57.412Z,8.74
2023-04-17T02:59:58.961Z,8.73
2023-04-17T03:02:00.562Z,8.71
2023-04-17T03:04:02.372Z,8.68
2023-04-17T03:06:04.240Z,8.67
2023-04-17T03:08:06.518Z,8.65
2023-04-17T03:10:09.395Z,8.64
2023-04-17T03:12:10.938Z,8.61
2023-04-17T03:14:12.420Z,8.60
2023-04-17T03:16:14.088Z,8.58
2023-04-17T03:18:15.811Z,8.56
2023-04-17T03:20:17.904Z,8.53
2023-04-17T03:22:19.442Z,8.52
2023-04-17T03:24:21.150Z,8.50
2023-04-17T03:26:22.703Z,8.50
2023-04-17T03:28:24.349Z,8.48
2023-04-17T03:30:25.822Z,8.47
2023-04-17T03:32:27.307Z,8.45
2023-04-17T03:34:29.126Z,8.45
2023-04-17T03:36:30.955Z,8.44
2023-04-17T03:38:33.189Z,8.45
2023-04-17T03:40:35.390Z,8.42
2023-04-17T03:42:36.873Z,8.42
2023-04-17T03:44:38.329Z,8.40
2023-04-17T03:46:39.911Z,8.41
2023-04-17T03:48:41.352Z,8.39
2023-04-17T03:50:42.916Z,8.38
2023-04-17T03:52:44.583Z,8.37
2023-04-17T03:54:48.892Z,8.37
2023-04-17T03:56:50.401Z,8.37
2023-04-17T03:58:51.920Z,8.35
2023-04-17T04:00:55.592Z,8.33
2023-04-17T04:02:57.223Z,8.33
2023-04-17T04:04:58.917Z,8.32
2023-04-17T04:07:01.547Z,8.32
2023-04-17T04:09:03.583Z,8.32
2023-04-17T04:11:05.164Z,8.31
2023-04-17T04:13:06.613Z,8.30
2023-04-17T04:15:08.718Z,8.30
2023-04-17T04:17:10.207Z,8.29
2023-04-17T04:19:11.940Z,8.29
2023-04-17T04:21:13.733Z,8.29
2023-04-17T04:23:16.805Z,8.27
2023-04-17T04:25:18.469Z,8.26
2023-04-17T04:27:22.693Z,8.24
2023-04-17T04:29:25.627Z,8.22
2023-04-17T04:31:29.701Z,8.20
2023-04-17T04:33:31.350Z,8.18
2023-04-17T04:35:32.854Z,8.19
2023-04-17T04:37:34.336Z,8.18
2023-04-17T04:39:38.034Z,8.17
2023-04-17T04:41:45.817Z,8.17
2023-04-17T04:43:47.291Z,8.18
2023-04-17T04:45:48.788Z,8.16
2023-04-17T04:47:50.331Z,8.16
2023-04-17T04:49:52.087Z,8.14
2023-04-17T04:51:53.606Z,8.13
2023-04-17T04:53:55.737Z,8.13
2023-04-17T04:55:57.267Z,8.13
2023-04-17T04:57:58.794Z,8.12
2023-04-17T05:00:00.334Z,8.12
2023-04-17T05:02:01.970Z,8.13
2023-04-17T05:04:03.840Z,8.13
2023-04-17T05:06:06.027Z,8.13
2023-04-17T05:08:07.473Z,8.13
2023-04-17T05:10:09.399Z,8.14
2023-04-17T05:12:10.954Z,8.14
2023-04-17T05:14:12.422Z,8.13
2023-04-17T05:16:13.950Z,8.14
2023-04-17T05:18:15.530Z,8.15
2023-04-17T05:20:17.096Z,8.15
2023-04-17T05:22:18.601Z,8.15
2023-04-17T05:24:20.429Z,8.17
2023-04-17T05:26:22.247Z,8.15
2023-04-17T05:28:23.892Z,8.16
2023-04-17T05:30:25.394Z,8.18
2023-04-17T05:32:26.907Z,8.19
2023-04-17T05:34:28.397Z,8.22
2023-04-17T05:36:31.581Z,8.24
2023-04-17T05:38:33.132Z,8.26
2023-04-17T05:40:34.819Z,8.30
2023-04-17T05:42:36.560Z,8.32
2023-04-17T05:44:38.034Z,8.33
2023-04-17T05:46:39.612Z,8.34
2023-04-17T05:48:41.179Z,8.36
2023-04-17T05:50:42.657Z,8.40
2023-04-17T05:52:44.244Z,8.43
2023-04-17T05:54:45.850Z,8.46
2023-04-17T05:56:47.517Z,8.49
2023-04-17T05:58:48.960Z,8.55
2023-04-17T06:00:50.835Z,8.60
2023-04-17T06:02:52.473Z,8.63
2023-04-17T06:04:54.162Z,8.65
2023-04-17T06:06:55.852Z,8.67
2023-04-17T06:08:57.570Z,8.70
2023-04-17T06:10:59.042Z,8.74
2023-04-17T06:13:00.702Z,8.77
2023-04-17T06:15:02.302Z,8.80
2023-04-17T06:17:03.885Z,8.85
2023-04-17T06:19:05.525Z,8.89
2023-04-17T06:21:07.836Z,8.93
2023-04-17T06:23:09.301Z,8.99
2023-04-17T06:25:10.772Z,9.01
2023-04-17T06:27:12.281Z,9.06
2023-04-17T06:29:15.493Z,9.11
2023-04-17T06:31:17.106Z,9.17
2023-04-17T06:33:18.598Z,9.22
2023-04-17T06:35:20.440Z,9.24
2023-04-17T06:37:21.901Z,9.29
2023-04-17T06:39:23.327Z,9.31
2023-04-17T06:41:24.764Z,9.33
2023-04-17T06:43:26.258Z,9.34
2023-04-17T06:45:27.697Z,9.41
2023-04-17T06:47:29.304Z,9.42
2023-04-17T06:49:33.930Z,9.46
2023-04-17T06:51:35.394Z,9.53
2023-04-17T06:53:36.915Z,9.60
2023-04-17T06:55:38.394Z,9.65
2023-04-17T06:57:39.873Z,9.68
2023-04-17T06:59:41.356Z,9.73
2023-04-17T07:01:42.830Z,9.75
2023-04-17T07:03:44.618Z,9.82
2023-04-17T07:05:46.526Z,9.87
2023-04-17T07:07:48.193Z,9.89
2023-04-17T07:09:49.756Z,9.93
2023-04-17T07:11:51.465Z,9.96
2023-04-17T07:13:52.944Z,10.04
2023-04-17T07:15:55.576Z,10.04
2023-04-17T07:17:57.203Z,10.12
2023-04-17T07:19:58.732Z,10.18
2023-04-17T07:22:00.321Z,10.22
2023-04-17T07:24:01.789Z,10.28
2023-04-17T07:26:03.325Z,10.40
2023-04-17T07:28:05.385Z,10.48
2023-04-17T07:30:08.209Z,10.55
2023-04-17T07:32:09.712Z,10.60
2023-04-17T07:34:11.408Z,10.65
2023-04-17T07:36:13.036Z,10.75
2023-04-17T07:38:14.519Z,10.84
2023-04-17T07:40:16.921Z,10.88
2023-04-17T07:42:18.389Z,10.90
2023-04-17T07:44:19.936Z,11.01
2023-04-17T07:46:21.445Z,11.13
2023-04-17T07:48:23.378Z,11.21
2023-04-17T07:50:25.122Z,11.24
2023-04-17T07:52:26.710Z,11.24
2023-04-17T07:54:28.202Z,11.23
2023-04-17T07:56:31.830Z,11.33
2023-04-17T07:58:35.740Z,11.43
2023-04-17T08:00:41.991Z,11.53
2023-04-17T08:02:43.838Z,11.59
2023-04-17T08:04:46.516Z,11.65
2023-04-17T08:06:48.267Z,11.73
2023-04-17T08:08:49.984Z,11.80
2023-04-17T08:10:51.522Z,11.91
2023-04-17T08:12:52.969Z,12.00
2023-04-17T08:14:54.439Z,11.99
2023-04-17T08:16:55.931Z,11.92
2023-04-17T08:18:57.421Z,11.94
2023-04-17T08:20:59.063Z,11.95
2023-04-17T08:23:00.619Z,11.95
2023-04-17T08:25:03.121Z,11.98
2023-04-17T08:27:05.194Z,11.99
2023-04-17T08:29:07.385Z,12.01
2023-04-17T08:31:10.418Z,12.01
2023-04-17T08:33:13.535Z,11.95
2023-04-17T08:35:15.792Z,11.92
2023-04-17T08:37:17.241Z,11.97
2023-04-17T08:39:19.439Z,12.06
2023-04-17T08:41:25.551Z,12.09
2023-04-17T08:43:29.488Z,12.11
2023-04-17T08:45:35.454Z,12.15
2023-04-17T08:47:39.651Z,12.20
2023-04-17T08:49:44.100Z,12.20
2023-04-17T08:51:46.972Z,12.21
2023-04-17T08:53:48.432Z,12.24
2023-04-17T08:55:50.018Z,12.30
2023-04-17T08:57:55.368Z,12.35
2023-04-17T08:59:56.857Z,12.37
2023-04-17T09:02:06.777Z,12.40
2023-04-17T09:04:08.942Z,12.46
2023-04-17T09:06:11.492Z,12.48
2023-04-17T09:08:20.469Z,12.51
2023-04-17T09:10:38.128Z,12.60
2023-04-17T09:12:41.956Z,12.69
2023-04-17T09:14:43.653Z,12.73
2023-04-17T09:16:54.942Z,12.70
2023-04-17T09:19:09.711Z,12.69
2023-04-17T09:21:11.946Z,12.72
2023-04-17T09:23:13.413Z,12.73
2023-04-17T09:25:19.243Z,12.74
2023-04-17T09:27:23.876Z,12.74
2023-04-17T09:29:25.567Z,12.73
2023-04-17T09:31:30.436Z,12.76
2023-04-17T09:33:32.095Z,12.89
2023-04-17T09:35:34.480Z,12.93
2023-04-17T09:37:50.492Z,12.99
2023-04-17T09:40:00.037Z,13.04
2023-04-17T09:42:03.983Z,13.08
2023-04-17T09:44:06.273Z,13.17
2023-04-17T09:46:07.921Z,13.27
2023-04-17T09:48:11.612Z,13.33
2023-04-17T09:50:16.966Z,13.37
2023-04-17T09:52:20.774Z,13.47
2023-04-17T09:54:23.344Z,13.55
2023-04-17T09:56:26.510Z,13.50
2023-04-17T09:58:27.945Z,13.55
2023-04-17T10:00:29.819Z,13.63
2023-04-17T10:02:32.740Z,13.61
2023-04-17T10:04:35.326Z,13.64
2023-04-17T10:06:37.031Z,13.71
2023-04-17T10:08:39.092Z,13.77
2023-04-17T10:10:40.732Z,13.72
2023-04-17T10:12:43.315Z,13.75
2023-04-17T10:14:48.274Z,13.82
2023-04-17T10:16:50.584Z,13.89
2023-04-17T10:19:27.708Z,14.02
2023-04-17T10:21:29.295Z,14.11
2023-04-17T10:23:33.554Z,14.04
2023-04-17T10:25:35.377Z,14.15
2023-04-17T10:27:36.775Z,14.22
2023-04-17T10:29:57.583Z,14.34
2023-04-17T10:32:11.198Z,14.48
2023-04-17T10:34:39.584Z,14.72
2023-04-17T10:36:42.463Z,14.81
2023-04-17T10:38:43.999Z,14.91
2023-04-17T10:40:45.974Z,15.05
2023-04-17T10:43:14.857Z,15.17
2023-04-17T10:45:19.478Z,15.29
2023-04-17T10:47:22.470Z,15.43
2023-04-17T10:49:24.683Z,15.69
2023-04-17T10:51:29.141Z,15.98
2023-04-17T10:53:37.527Z,16.19
2023-04-17T10:55:49.327Z,16.39
2023-04-17T10:57:54.670Z,16.82
2023-04-17T11:00:12.346Z,16.99
2023-04-17T11:02:14.901Z,16.77
2023-04-17T11:04:24.645Z,16.81
2023-04-17T11:06:33.564Z,17.24
2023-04-17T11:08:35.270Z,17.45
2023-04-17T11:10:37.445Z,17.79
2023-04-17T11:12:39.331Z,18.06
2023-04-17T11:14:43.088Z,18.21
2023-04-17T11:16:47.633Z,18.39
2023-04-17T11:18:49.203Z,18.67
2023-04-17T11:20:52.335Z,19.14
2023-04-17T11:22:53.889Z,19.32
2023-04-17T11:24:55.425Z,19.45
2023-04-17T11:26:59.712Z,19.62
2023-04-17T11:29:01.908Z,20.00
2023-04-17T11:31:04.436Z,19.92
2023-04-17T11:33:07.946Z,19.89
2023-04-17T11:35:10.010Z,20.06
2023-04-17T11:37:14.570Z,20.16
2023-04-17T11:39:16.259Z,20.47
2023-04-17T11:41:17.816Z,20.27
2023-04-17T11:43:21.103Z,19.73
2023-04-17T11:45:22.710Z,19.75
2023-04-17T11:47:24.248Z,20.21
2023-04-17T11:49:29.355Z,20.60
2023-04-17T11:51:31.785Z,20.55
2023-04-17T11:53:35.286Z,20.80
2023-04-17T11:55:36.747Z,21.00
2023-04-17T11:57:44.076Z,21.23
2023-04-17T11:59:46.077Z,21.51
2023-04-17T12:01:53.505Z,21.54
2023-04-17T12:03:59.345Z,21.38
2023-04-17T12:06:03.177Z,21.06
2023-04-17T12:08:07.383Z,20.92
2023-04-17T12:10:09.170Z,21.21
2023-04-17T12:12:11.017Z,21.37
2023-04-17T12:14:12.861Z,21.11
2023-04-17T12:16:14.468Z,20.85
2023-04-17T12:18:15.993Z,21.14
2023-04-17T12:20:17.469Z,21.13
2023-04-17T12:22:19.378Z,20.72
2023-04-17T12:24:22.891Z,20.59
2023-04-17T12:26:25.683Z,20.39
2023-04-17T12:28:27.249Z,20.31
2023-04-17T12:30:29.392Z,20.36
2023-04-17T12:32:31.158Z,20.65
2023-04-17T12:34:32.731Z,20.96
2023-04-17T12:36:34.533Z,21.07
2023-04-17T12:38:36.148Z,20.88
2023-04-17T12:40:42.962Z,20.66
2023-04-17T12:42:49.066Z,20.37
2023-04-17T12:44:51.312Z,19.92
2023-04-17T12:46:52.793Z,19.55
2023-04-17T12:48:58.442Z,19.29
2023-04-17T12:50:59.966Z,19.20
2023-04-17T12:53:01.440Z,19.01
2023-04-17T12:55:04.520Z,18.86
2023-04-17T12:57:06.165Z,18.73
2023-04-17T12:59:07.879Z,18.93
2023-04-17T13:01:09.511Z,19.30
2023-04-17T13:03:11.905Z,19.60
2023-04-17T13:05:13.762Z,19.95
2023-04-17T13:07:15.357Z,20.05
2023-04-17T13:09:17.961Z,19.96
2023-04-17T13:11:19.495Z,19.82
2023-04-17T13:13:20.933Z,19.83
2023-04-17T13:15:22.529Z,19.82
2023-04-17T13:17:25.142Z,19.83
2023-04-17T13:19:26.627Z,19.83
2023-04-17T13:21:28.201Z,19.86
2023-04-17T13:23:29.692Z,19.93
2023-04-17T13:25:31.851Z,19.78
2023-04-17T13:27:33.371Z,19.82
2023-04-17T13:29:34.895Z,19.89
2023-04-17T13:31:37.053Z,19.92
2023-04-17T13:33:40.282Z,19.83
2023-04-17T13:35:42.168Z,19.73
2023-04-17T13:37:43.646Z,19.69
2023-04-17T13:39:45.118Z,19.64
2023-04-17T13:41:46.951Z,19.68
2023-04-17T13:43:48.425Z,19.66
2023-04-17T13:45:52.267Z,19.74
2023-04-17T13:47:55.054Z,19.66
2023-04-17T13:49:56.559Z,19.52
2023-04-17T13:51:58.091Z,19.51
2023-04-17T13:53:59.676Z,19.50
2023-04-17T13:56:01.259Z,19.51
2023-04-17T13:58:02.965Z,19.41
2023-04-17T14:00:04.878Z,19.36
2023-04-17T14:02:06.944Z,19.31
2023-04-17T14:04:09.502Z,19.37
2023-04-17T14:06:11.570Z,19.47
2023-04-17T14:08:13.047Z,19.51
2023-04-17T14:10:14.563Z,19.42
2023-04-17T14:12:20.605Z,19.45
2023-04-17T14:14:22.465Z,19.50
2023-04-17T14:16:24.086Z,19.44
2023-04-17T14:18:25.619Z,19.31
2023-04-17T14:20:27.165Z,19.10
2023-04-17T14:22:28.640Z,18.85
2023-04-17T14:24:30.229Z,18.69
2023-04-17T14:26:31.792Z,18.68
2023-04-17T14:28:33.399Z,18.74
2023-04-17T14:30:34.908Z,18.76
2023-04-17T14:32:38.410Z,18.78
2023-04-17T14:34:40.074Z,18.76
2023-04-17T14:36:43.027Z,18.78
2023-04-17T14:38:48.910Z,18.83
2023-04-17T14:40:50.813Z,18.89
2023-04-17T14:42:54.661Z,18.97
2023-04-17T14:44:56.407Z,19.08
2023-04-17T14:46:58.174Z,19.06
2023-04-17T14:48:59.797Z,19.05
2023-04-17T14:51:01.608Z,18.95
2023-04-17T14:53:04.553Z,18.89
2023-04-17T14:55:06.264Z,18.90
2023-04-17T14:57:08.466Z,19.00
2023-04-17T14:59:10.031Z,19.01
2023-04-17T15:01:11.619Z,18.97
2023-04-17T15:03:13.244Z,19.00
2023-04-17T15:05:18.801Z,19.03
2023-04-17T15:07:20.742Z,18.98
2023-04-17T15:09:22.207Z,18.83
2023-04-17T15:11:23.780Z,18.66
2023-04-17T15:13:25.347Z,18.54
2023-04-17T15:15:28.543Z,18.30
2023-04-17T15:17:30.227Z,18.22
2023-04-17T15:19:31.731Z,18.40
2023-04-17T15:21:33.254Z,18.53
2023-04-17T15:23:35.487Z,18.71
2023-04-17T15:25:37.190Z,18.77
2023-04-17T15:27:38.644Z,18.75
2023-04-17T15:29:40.347Z,18.70
2023-04-17T15:31:42.061Z,18.63
2023-04-17T15:33:45.598Z,18.69
2023-04-17T15:35:47.300Z,18.64
2023-04-17T15:37:48.857Z,18.59
2023-04-17T15:39:50.629Z,18.29
2023-04-17T15:41:52.260Z,17.92
2023-04-17T15:43:53.723Z,17.76
2023-04-17T15:45:55.648Z,17.85
2023-04-17T15:47:58.130Z,18.02
2023-04-17T15:49:59.721Z,18.18
2023-04-17T15:52:01.309Z,18.25
2023-04-17T15:54:03.165Z,18.25
2023-04-17T15:56:06.815Z,18.25
2023-04-17T15:58:08.442Z,18.18
2023-04-17T16:00:10.689Z,18.13
2023-04-17T16:02:13.626Z,18.07
2023-04-17T16:04:15.321Z,18.05
2023-04-17T16:06:16.902Z,18.07
2023-04-17T16:08:18.356Z,18.13
2023-04-17T16:10:19.984Z,18.12
2023-04-17T16:12:21.481Z,18.04
2023-04-17T16:14:22.962Z,18.00
2023-04-17T16:16:24.439Z,17.94
2023-04-17T16:18:26.001Z,17.70
2023-04-17T16:20:27.449Z,17.60
2023-04-17T16:22:28.949Z,17.59
2023-04-17T16:24:30.462Z,17.55
2023-04-17T16:26:32.049Z,17.50
2023-04-17T16:28:34.413Z,17.41
2023-04-17T16:30:36.004Z,17.25
2023-04-17T16:32:37.601Z,17.13
2023-04-17T16:34:39.181Z,17.11
2023-04-17T16:36:45.189Z,17.15
2023-04-17T16:38:47.204Z,17.04
2023-04-17T16:40:48.692Z,16.94
2023-04-17T16:42:50.441Z,16.86
2023-04-17T16:44:52.001Z,16.78
2023-04-17T16:48:59.674Z,16.59
2023-04-17T16:51:07.439Z,16.56
2023-04-17T16:53:09.291Z,16.44
2023-04-17T16:55:10.856Z,16.40
2023-04-17T16:57:12.350Z,16.39
2023-04-17T16:59:14.286Z,16.30
2023-04-17T17:01:15.995Z,16.25
2023-04-17T17:03:18.316Z,16.25
2023-04-17T17:05:20.003Z,16.15
2023-04-17T17:07:21.455Z,16.00
2023-04-17T17:09:22.978Z,15.86
2023-04-17T17:11:24.521Z,15.84
2023-04-17T17:13:26.368Z,15.75
2023-04-17T17:15:27.890Z,15.71
2023-04-17T17:17:30.035Z,15.61
2023-04-17T17:19:31.629Z,15.62
2023-04-17T17:21:33.191Z,15.59
2023-04-17T17:23:34.881Z,15.52
2023-04-17T17:25:36.362Z,15.47
2023-04-17T17:27:37.884Z,15.39
2023-04-17T17:29:39.691Z,15.22
2023-04-17T17:31:41.244Z,15.14
2023-04-17T17:33:42.776Z,15.11
2023-04-17T17:35:44.249Z,15.02
2023-04-17T17:37:45.799Z,14.95
2023-04-17T17:39:47.255Z,14.82
2023-04-17T17:41:48.761Z,14.65
2023-04-17T17:43:50.362Z,14.55
2023-04-17T17:45:52.387Z,14.42
2023-04-17T17:47:54.029Z,14.27
2023-04-17T17:49:55.719Z,14.21
2023-04-17T17:51:57.166Z,14.13
2023-04-17T17:53:58.639Z,14.05
2023-04-17T17:56:00.122Z,13.94
2023-04-17T17:58:01.645Z,13.81
2023-04-17T18:00:03.513Z,13.72
2023-04-17T18:02:05.157Z,13.60
2023-04-17T18:04:06.952Z,13.55
2023-04-17T18:06:09.211Z,13.48
2023-04-17T18:08:10.760Z,13.40
2023-04-17T18:10:12.359Z,13.37
2023-04-17T18:12:13.805Z,13.27
2023-04-17T18:14:15.274Z,13.20
2023-04-17T18:16:17.067Z,13.10
2023-04-17T18:18:18.557Z,13.00
2023-04-17T18:20:20.143Z,12.99
2023-04-17T18:22:21.628Z,12.89
2023-04-17T18:24:23.162Z,12.82
2023-04-17T18:26:24.665Z,12.75
2023-04-17T18:28:27.015Z,12.68
2023-04-17T18:30:28.708Z,12.57
2023-04-17T18:32:31.587Z,12.47
2023-04-17T18:34:33.091Z,12.43
2023-04-17T18:36:34.599Z,12.35
2023-04-17T18:38:36.111Z,12.30
2023-04-17T18:40:37.853Z,12.21
2023-04-17T18:42:39.302Z,12.16
2023-04-17T18:44:41.806Z,12.08
2023-04-17T18:46:43.278Z,12.02
2023-04-17T18:48:44.852Z,11.99
2023-04-17T18:50:46.333Z,11.91
2023-04-17T18:52:50.452Z,11.88
2023-04-17T18:54:52.769Z,11.83
2023-04-17T18:56:54.302Z,11.71
2023-04-17T18:58:55.765Z,11.70
2023-04-17T19:00:57.278Z,11.64
2023-04-17T19:02:58.777Z,11.58
2023-04-17T19:05:00.494Z,11.52
2023-04-17T19:07:02.766Z,11.45
2023-04-17T19:09:04.310Z,11.40
2023-04-17T19:19:05.679Z,11.00
2023-04-17T19:21:07.328Z,10.91
2023-04-17T19:23:10.150Z,10.88
2023-04-17T19:25:11.791Z,10.87
2023-04-17T19:27:13.562Z,10.85
2023-04-17T19:29:17.122Z,10.79
2023-04-17T19:31:18.662Z,10.77
2023-04-17T19:33:20.450Z,10.75
2023-04-17T19:35:21.956Z,10.68
2023-04-17T19:37:23.419Z,10.62
2023-04-17T19:39:27.309Z,10.60
2023-04-17T19:41:28.860Z,10.57
2023-04-17T19:43:30.314Z,10.54
2023-04-17T19:45:33.282Z,10.55
2023-04-17T19:47:34.861Z,10.44
2023-04-17T19:49:36.645Z,10.45
2023-04-17T19:51:38.724Z,10.42
2023-04-17T19:53:42.336Z,10.39
2023-04-17T19:55:43.798Z,10.33
2023-04-17T19:57:45.382Z,10.33
2023-04-17T19:59:46.868Z,10.28
2023-04-17T20:01:48.802Z,10.27
2023-04-17T20:03:51.372Z,10.23
2023-04-17T20:05:53.914Z,10.19
2023-04-17T20:07:55.459Z,10.13
2023-04-17T20:09:56.987Z,10.08
2023-04-17T20:11:58.531Z,10.07
2023-04-17T20:14:00.030Z,10.02
2023-04-17T20:16:01.721Z,9.95
2023-04-17T20:18:05.469Z,9.95
2023-04-17T20:20:07.551Z,9.92
2023-04-17T20:22:09.017Z,9.88
2023-04-17T20:24:10.629Z,9.86
2023-04-17T20:26:12.087Z,9.85
2023-04-17T20:28:13.574Z,9.83
2023-04-17T20:30:15.436Z,9.77
2023-04-17T20:32:17.881Z,9.69
2023-04-17T20:34:19.465Z,9.65
2023-04-17T20:36:21.081Z,9.64
2023-04-17T20:38:22.680Z,9.58
2023-04-17T20:40:24.207Z,9.51
2023-04-17T20:42:25.728Z,9.48
2023-04-17T20:44:27.181Z,9.43
2023-04-17T20:46:29.393Z,9.41
2023-04-17T20:48:31.017Z,9.39
2023-04-17T20:50:32.534Z,9.32
2023-04-17T20:52:34.234Z,9.30
2023-04-17T20:54:35.858Z,9.25
2023-04-17T20:56:37.325Z,9.26
2023-04-17T20:58:38.827Z,9.20
2023-04-17T21:00:53.974Z,9.18
2023-04-17T21:03:02.031Z,9.13
2023-04-17T21:05:04.053Z,9.03
2023-04-17T21:07:05.565Z,9.02
2023-04-17T21:09:08.655Z,9.00
2023-04-17T21:11:10.192Z,8.95
2023-04-17T21:13:11.639Z,8.92
2023-04-17T21:15:13.284Z,8.87
2023-04-17T21:17:14.859Z,8.82
2023-04-17T21:19:16.373Z,8.81
2023-04-17T21:21:17.891Z,8.80
2023-04-17T21:23:19.422Z,8.73
2023-04-17T21:25:21.497Z,8.76
2023-04-17T21:27:23.107Z,8.69
2023-04-17T21:29:28.440Z,8.66
2023-04-17T21:31:31.300Z,8.62
2023-04-17T21:33:32.761Z,8.54
2023-04-17T21:35:35.532Z,8.57
2023-04-17T21:37:37.079Z,8.56
2023-04-17T21:39:38.512Z,8.53
2023-04-17T21:41:39.971Z,8.52
2023-04-17T21:43:41.403Z,8.54
2023-04-17T21:45:42.896Z,8.56
2023-04-17T21:47:44.458Z,8.53
2023-04-17T21:49:47.406Z,8.56
2023-04-17T21:51:48.892Z,8.50
2023-04-17T21:53:50.424Z,8.53
2023-04-17T21:55:51.884Z,8.52
2023-04-17T21:57:53.446Z,8.50
2023-04-17T21:59:54.905Z,8.49
2023-04-17T22:01:56.597Z,8.48
2023-04-17T22:03:58.104Z,8.46
2023-04-17T22:06:00.129Z,8.47
2023-04-17T22:08:01.687Z,8.47
2023-04-17T22:10:03.326Z,8.44
2023-04-17T22:12:12.239Z,8.44
2023-04-17T22:14:14.252Z,8.44
2023-04-17T22:16:16.005Z,8.45
2023-04-17T22:18:17.643Z,8.43
2023-04-17T22:20:19.892Z,8.42
2023-04-17T22:22:21.682Z,8.42
2023-04-17T22:24:23.139Z,8.42
2023-04-17T22:26:26.813Z,8.42
2023-04-17T22:28:31.357Z,8.40
2023-04-17T22:30:32.880Z,8.38
2023-04-17T22:32:34.483Z,8.37
2023-04-17T22:34:36.019Z,8.34
2023-04-17T22:36:37.503Z,8.33
2023-04-17T22:38:38.943Z,8.34
2023-04-17T22:40:41.332Z,8.35
2023-04-17T22:42:42.997Z,8.33
2023-04-17T22:44:44.563Z,8.34
2023-04-17T22:46:46.109Z,8.34
2023-04-17T22:48:49.553Z,8.33
2023-04-17T22:50:51.040Z,8.33
2023-04-17T22:52:55.544Z,8.34
2023-04-17T22:54:57.212Z,8.32
2023-04-17T22:56:58.911Z,8.29
2023-04-17T22:59:00.428Z,8.26
2023-04-17T23:01:01.929Z,8.26
2023-04-17T23:03:03.625Z,8.26
2023-04-17T23:05:06.353Z,8.27
2023-04-17T23:07:07.962Z,8.24
2023-04-17T23:09:09.430Z,8.25
2023-04-17T23:11:11.021Z,8.22
2023-04-17T23:13:12.594Z,8.18
2023-04-17T23:15:14.361Z,8.17
2023-04-17T23:17:15.828Z,8.13
2023-04-17T23:19:18.337Z,8.12
2023-04-17T23:21:19.964Z,8.09
2023-04-17T23:23:21.574Z,8.08
2023-04-17T23:25:23.060Z,8.09
2023-04-17T23:27:24.602Z,8.08
2023-04-17T23:29:26.145Z,8.10
2023-04-17T23:31:27.762Z,8.07
2023-04-17T23:33:29.299Z,8.08
2023-04-17T23:35:30.811Z,8.08
2023-04-17T23:37:32.445Z,8.08
2023-04-17T23:39:34.709Z,8.08
2023-04-17T23:41:36.414Z,8.09
2023-04-17T23:43:37.885Z,8.08
2023-04-17T23:45:39.474Z,8.06
2023-04-17T23:47:41.023Z,8.06
2023-04-17T23:49:42.484Z,8.06
2023-04-17T23:51:43.983Z,8.05
2023-04-17T23:53:45.503Z,8.04
2023-04-17T23:55:47.052Z,8.04
2023-04-17T23:57:48.520Z,8.04
2023-04-17T23:59:49.967Z,8.03
